Saturday, November 18, 2017, 1:30 AM EST
Back to Local

KTEB, Teterboro Airport

Location: South Hackensack, NJ, United States Lat: 40.867
Local Time: 1:30 AM EST ( 6:30 GMT) Lon: -74.05
Time Zone: US/Eastern Elev: 9 ft

Show me the last for .
Show Decoded

2017-11-18 00:51 METAR KTEB 180551Z 00000KT 10SM CLR 00/M07 A3004 RMK AO2 SLP172 T00001067 10078
                 20000 58015 =
2017-11-17 23:51 METAR KTEB 180451Z 00000KT 10SM CLR 01/M08 A3007 RMK AO2 SLP182 T00061078
                 400890000 =
2017-11-17 22:51 METAR KTEB 180351Z 31005KT 10SM CLR 03/M09 A3007 RMK AO2 SLP181 T00281094 =
2017-11-17 21:51 METAR KTEB 180251Z 30003KT 10SM CLR 03/M08 A3008 RMK AO2 SLP187 T00281083 53001
                 =
2017-11-17 20:51 METAR KTEB 180151Z 00000KT 10SM CLR 04/M09 A3008 RMK AO2 SLP186 T00391094 =
2017-11-17 19:51 METAR KTEB 180051Z VRB06KT 10SM CLR 04/M09 A3008 RMK AO2 SLP186 T00441089 =
2017-11-17 18:51 METAR KTEB 172351Z 31012KT 10SM CLR 06/M09 A3008 RMK AO2 SLP186 T00561089 10089
                 20056 53004 =
2017-11-17 17:51 METAR KTEB 172251Z 30013KT 10SM CLR 06/M08 A3007 RMK AO2 SLP183 T00611083 =
2017-11-17 16:51 METAR KTEB 172151Z 32011KT 10SM CLR 07/M09 A3007 RMK AO2 SLP182 T00671089 =
2017-11-17 15:51 METAR KTEB 172051Z 33010G18KT 10SM FU CLR 08/M09 A3007 RMK AO2 SLP182 FU 6SM E
                 OF AP T00831089 53006 =
2017-11-17 14:51 METAR KTEB 171951Z 30009G19KT 10SM CLR 09/M07 A3006 RMK AO2 SLP180 T00891072 =
2017-11-17 13:51 METAR KTEB 171851Z 30012G25KT 10SM CLR 09/M07 A3005 RMK AO2 PK WND 28028/1837
                 SLP176 T00891072 =
2017-11-17 12:51 METAR KTEB 171751Z 32014G20KT 10SM CLR 08/M06 A3005 RMK AO2 SLP175 T00831056
                 10083 20039 56013 =
2017-11-17 11:51 METAR KTEB 171651Z 32016G21KT 10SM CLR 08/M04 A3005 RMK AO2 SLP176 T00781044 =
2017-11-17 10:51 METAR KTEB 171551Z 33014G22KT 10SM CLR 07/M04 A3007 RMK AO2 SLP183 T00671044 =
2017-11-17 09:51 METAR KTEB 171451Z 32010G28KT 10SM CLR 06/M03 A3009 RMK AO2 PK WND 30028/1443
                 SLP188 T00611033 53022 =
2017-11-17 08:51 METAR KTEB 171351Z 32013G24KT 10SM CLR 06/M03 A3006 RMK AO2 PK WND 33029/1255
                 SLP179 T00561033 =
2017-11-17 07:51 METAR KTEB 171251Z 32017G24KT 10SM CLR 04/M03 A3004 RMK AO2 SLP171 T00441033 =
2017-11-17 06:51 METAR KTEB 171151Z 33012G26KT 10SM FEW041 04/M04 A3002 RMK AO2 PK WND 32028/1054
                 SLP166 70003 T00391039 10061 20039 51023 =
2017-11-17 05:51 METAR KTEB 171051Z 31015G25KT 10SM FEW044 04/M04 A3002 RMK AO2 PK WND 32032/1012
                 SLP164 T00441039 =
2017-11-17 04:51 METAR KTEB 170951Z 31016G28KT 10SM BKN046 05/M04 A2999 RMK AO2 PK WND 32028/0943
                 SLP155 T00501039 =
2017-11-17 03:51 METAR KTEB 170851Z 31013G22KT 10SM BKN047 06/M03 A2995 RMK AO2 SLP143 T00561028
                 52013 =
2017-11-17 02:51 METAR KTEB 170751Z 30010G18KT 10SM BKN050 06/M02 A2994 RMK AO2 SLP138 T00561022
                 =
2017-11-17 01:51 METAR KTEB 170651Z 30009KT 10SM CLR 06/M01 A2993 RMK AO2 SLP135 T00561011 =

Support USWX by starting your Amazon purchase here.